Mapleton, UT (84664)

7:13 PM MST on February 13, 2016 (GMT -0700)
Hobble Creek | | Change Station
CLOSE
Current Station
Personal Weather Station
Location: Springville, UT
Elevation: 4859 ft
Nearby Weather Stations

Elev 4859 ft 40.15 °N, 111.55 °W | Updated 31 seconds ago

Clear
Clear
26.8 °F
Feels Like 27 °F
N
0.0
Wind Variable Wind from East
Gusts 0.0 mph

Today
High -- | Low -- °F
--% Chance of Precip.
Yesterday
High -- | Low -- °F
Precip. -- in
Pressure 30.31 in
Visibility 2.0 miles
Clouds Clear
Windchill 27 °F
Dew Point 20 °F
Humidity 75%
Rainfall 0.00 in
Snow Depth Not available.
7:22 AM 5:59 PM
Waxing Crescent, 36% visible
METAR KPVU 140147Z 00000KT 2SM FZFG SKC M04/M06 A3031
Pressure 30.31 in
Visibility 2.0 miles
Clouds Clear
Windchill 27 °F
Dew Point 20 °F
Humidity 75%
Rainfall 0.00 in
Snow Depth Not available.
7:22 AM 5:59 PM
Waxing Crescent, 36% visible
METAR KPVU 140147Z 00000KT 2SM FZFG SKC M04/M06 A3031

10-Day Weather Forecast

Almanac

Astronomy

Feb. 13, 2016 Rise Set
Actual Time
Civil Twilight
Nautical Twilight
Astronomical Twilight
Moon
Length of Visible Light
Length of Day
Tomorrow will be .
, % of the Moon is Illuminated

Today's Extremes

State Highs State Lows

Community

WunderPhotos

Upload Photos

1,892,726 photos uploaded!

WunderBlog® & News

Nearby

Air Quality

  Air Quality AQ Index Pollutant
Not available.

Snow Depth

Station Depth Elevation

Earthquake Activity

City Distance Mag. Time & Date
Minimum magnitude displayed is 2.5.

Coastal Water Temperatures

Place Temperature

Stations

Nearby Weather Stations

Station Location Temp. Windchill Dew Point Humidity Wind Precip. Elev Updated Type
                   

Watches & Warnings

There are currently no watches in effect.